sensor_id;sensor_type;location;lat;lon;timestamp;temperature;humidity
1668;DHT22;832;47.956;7.864;2022-08-01T00:00:58;21.10;1.00
1668;DHT22;832;47.956;7.864;2022-08-01T00:03:24;21.00;1.00
1668;DHT22;832;47.956;7.864;2022-08-01T00:05:49;21.00;1.00
1668;DHT22;832;47.956;7.864;2022-08-01T00:08:15;21.00;1.00
1668;DHT22;832;47.956;7.864;2022-08-01T00:10:41;21.00;1.00
1668;DHT22;832;47.956;7.864;2022-08-01T00:13:06;21.00;1.00
1668;DHT22;832;47.956;7.864;2022-08-01T00:15:32;21.00;1.00
1668;DHT22;832;47.956;7.864;2022-08-01T00:17:57;20.90;1.00
1668;DHT22;832;47.956;7.864;2022-08-01T00:20:23;20.90;1.00
1668;DHT22;832;47.956;7.864;2022-08-01T00:22:49;20.90;1.00
1668;DHT22;832;47.956;7.864;2022-08-01T00:25:14;20.90;1.00
1668;DHT22;832;47.956;7.864;2022-08-01T00:27:40;20.80;1.00
1668;DHT22;832;47.956;7.864;2022-08-01T00:30:06;20.80;1.00
1668;DHT22;832;47.956;7.864;2022-08-01T00:32:32;20.70;1.00
1668;DHT22;832;47.956;7.864;2022-08-01T00:34:58;20.70;1.00
1668;DHT22;832;47.956;7.864;2022-08-01T00:37:23;20.70;1.00
1668;DHT22;832;47.956;7.864;2022-08-01T00:39:49;20.60;1.00
1668;DHT22;832;47.956;7.864;2022-08-01T00:42:14;20.50;1.00
1668;DHT22;832;47.956;7.864;2022-08-01T00:44:40;20.50;1.00
1668;DHT22;832;47.956;7.864;2022-08-01T00:47:06;20.50;1.00
1668;DHT22;832;47.956;7.864;2022-08-01T00:49:32;20.50;1.00
1668;DHT22;832;47.956;7.864;2022-08-01T00:51:58;20.50;1.00
1668;DHT22;832;47.956;7.864;2022-08-01T00:54:25;20.60;1.00
1668;DHT22;832;47.956;7.864;2022-08-01T00:56:53;20.60;1.00
1668;DHT22;832;47.956;7.864;2022-08-01T00:59:21;20.50;1.00
1668;DHT22;832;47.956;7.864;2022-08-01T01:01:47;20.50;1.00
1668;DHT22;832;47.956;7.864;2022-08-01T01:04:13;20.50;1.00
1668;DHT22;832;47.956;7.864;2022-08-01T01:06:41;20.50;1.00
1668;DHT22;832;47.956;7.864;2022-08-01T01:09:30;20.50;1.00
1668;DHT22;832;47.956;7.864;2022-08-01T01:14:55;20.30;1.00
1668;DHT22;832;47.956;7.864;2022-08-01T01:17:28;20.30;1.00
1668;DHT22;832;47.956;7.864;2022-08-01T01:19:59;20.30;1.00
1668;DHT22;832;47.956;7.864;2022-08-01T01:25:32;20.20;1.00
1668;DHT22;832;47.956;7.864;2022-08-01T01:28:29;20.20;1.00
1668;DHT22;832;47.956;7.864;2022-08-01T01:30:57;20.20;1.00
1668;DHT22;832;47.956;7.864;2022-08-01T01:33:25;20.10;1.00
1668;DHT22;832;47.956;7.864;2022-08-01T01:35:59;20.10;1.00
1668;DHT22;832;47.956;7.864;2022-08-01T01:38:29;20.10;1.00
1668;DHT22;832;47.956;7.864;2022-08-01T01:40:57;20.20;1.00
1668;DHT22;832;47.956;7.864;2022-08-01T01:43:23;20.20;1.00
1668;DHT22;832;47.956;7.864;2022-08-01T01:45:50;20.10;1.00
1668;DHT22;832;47.956;7.864;2022-08-01T01:48:18;20.10;1.00
1668;DHT22;832;47.956;7.864;2022-08-01T01:50:46;20.00;1.00
1668;DHT22;832;47.956;7.864;2022-08-01T01:53:14;20.00;1.00
1668;DHT22;832;47.956;7.864;2022-08-01T01:55:43;19.90;1.00
1668;DHT22;832;47.956;7.864;2022-08-01T01:58:13;19.80;1.00
1668;DHT22;832;47.956;7.864;2022-08-01T02:00:40;19.90;1.00
1668;DHT22;832;47.956;7.864;2022-08-01T02:03:10;19.80;1.00
1668;DHT22;832;47.956;7.864;2022-08-01T02:05:37;19.80;1.00
1668;DHT22;832;47.956;7.864;2022-08-01T02:08:03;19.80;1.00
1668;DHT22;832;47.956;7.864;2022-08-01T02:10:31;19.90;1.00
1668;DHT22;832;47.956;7.864;2022-08-01T02:12:59;19.90;1.00
1668;DHT22;832;47.956;7.864;2022-08-01T02:15:27;19.80;1.00
1668;DHT22;832;47.956;7.864;2022-08-01T02:17:54;19.80;1.00
1668;DHT22;832;47.956;7.864;2022-08-01T02:20:21;19.80;1.00
1668;DHT22;832;47.956;7.864;2022-08-01T02:22:50;19.80;1.00
1668;DHT22;832;47.956;7.864;2022-08-01T02:25:31;19.80;1.00
1668;DHT22;832;47.956;7.864;2022-08-01T02:28:10;19.80;1.00
1668;DHT22;832;47.956;7.864;2022-08-01T02:30:37;19.70;1.00
1668;DHT22;832;47.956;7.864;2022-08-01T02:33:24;19.60;1.00
1668;DHT22;832;47.956;7.864;2022-08-01T02:35:56;19.70;1.00
1668;DHT22;832;47.956;7.864;2022-08-01T02:38:25;19.70;1.00
1668;DHT22;832;47.956;7.864;2022-08-01T02:40:52;19.60;1.00
1668;DHT22;832;47.956;7.864;2022-08-01T02:43:21;19.60;1.00
1668;DHT22;832;47.956;7.864;2022-08-01T02:45:53;19.60;1.00
1668;DHT22;832;47.956;7.864;2022-08-01T02:48:21;19.50;1.00
1668;DHT22;832;47.956;7.864;2022-08-01T02:50:49;19.40;1.00
1668;DHT22;832;47.956;7.864;2022-08-01T02:53:19;19.40;1.00
1668;DHT22;832;47.956;7.864;2022-08-01T02:55:47;19.40;1.00
1668;DHT22;832;47.956;7.864;2022-08-01T02:58:17;19.40;1.00
1668;DHT22;832;47.956;7.864;2022-08-01T03:00:44;19.40;1.00
1668;DHT22;832;47.956;7.864;2022-08-01T03:03:11;19.30;1.00
1668;DHT22;832;47.956;7.864;2022-08-01T03:05:37;19.30;1.00
1668;DHT22;832;47.956;7.864;2022-08-01T03:08:06;19.30;1.00
1668;DHT22;832;47.956;7.864;2022-08-01T03:10:34;19.20;1.00
1668;DHT22;832;47.956;7.864;2022-08-01T03:13:01;19.30;1.00
1668;DHT22;832;47.956;7.864;2022-08-01T03:15:31;19.30;1.00
1668;DHT22;832;47.956;7.864;2022-08-01T03:17:59;19.30;1.00
1668;DHT22;832;47.956;7.864;2022-08-01T03:20:25;19.30;1.00
1668;DHT22;832;47.956;7.864;2022-08-01T03:22:52;19.30;1.00
1668;DHT22;832;47.956;7.864;2022-08-01T03:25:19;19.20;1.00
1668;DHT22;832;47.956;7.864;2022-08-01T03:27:50;19.20;1.00
1668;DHT22;832;47.956;7.864;2022-08-01T03:30:17;19.10;1.00
1668;DHT22;832;47.956;7.864;2022-08-01T03:32:43;19.10;1.00
1668;DHT22;832;47.956;7.864;2022-08-01T03:35:10;19.10;1.00
1668;DHT22;832;47.956;7.864;2022-08-01T03:37:47;19.10;1.00
1668;DHT22;832;47.956;7.864;2022-08-01T03:40:23;19.20;1.00
1668;DHT22;832;47.956;7.864;2022-08-01T03:42:56;19.00;1.00
1668;DHT22;832;47.956;7.864;2022-08-01T03:45:26;19.00;1.00
1668;DHT22;832;47.956;7.864;2022-08-01T03:47:59;18.90;1.00
1668;DHT22;832;47.956;7.864;2022-08-01T03:50:25;19.00;1.00
1668;DHT22;832;47.956;7.864;2022-08-01T03:52:54;19.00;1.00
1668;DHT22;832;47.956;7.864;2022-08-01T03:55:21;19.00;1.00
1668;DHT22;832;47.956;7.864;2022-08-01T03:57:48;19.00;1.00
1668;DHT22;832;47.956;7.864;2022-08-01T04:00:14;19.00;1.00
1668;DHT22;832;47.956;7.864;2022-08-01T04:02:45;19.00;1.00
1668;DHT22;832;47.956;7.864;2022-08-01T04:05:11;19.00;1.00
1668;DHT22;832;47.956;7.864;2022-08-01T04:07:36;19.00;1.00
1668;DHT22;832;47.956;7.864;2022-08-01T04:10:04;19.10;1.00
1668;DHT22;832;47.956;7.864;2022-08-01T04:12:30;19.00;1.00
1668;DHT22;832;47.956;7.864;2022-08-01T04:14:56;19.00;1.00
1668;DHT22;832;47.956;7.864;2022-08-01T04:17:22;19.00;1.00
1668;DHT22;832;47.956;7.864;2022-08-01T04:19:47;19.00;1.00
1668;DHT22;832;47.956;7.864;2022-08-01T04:22:14;19.00;1.00
1668;DHT22;832;47.956;7.864;2022-08-01T04:24:43;18.90;1.00
1668;DHT22;832;47.956;7.864;2022-08-01T04:27:13;19.00;1.00
1668;DHT22;832;47.956;7.864;2022-08-01T04:29:40;18.90;1.00
1668;DHT22;832;47.956;7.864;2022-08-01T04:32:08;18.90;1.00
1668;DHT22;832;47.956;7.864;2022-08-01T04:34:38;19.00;1.00
1668;DHT22;832;47.956;7.864;2022-08-01T04:37:08;19.10;1.00
1668;DHT22;832;47.956;7.864;2022-08-01T04:39:34;19.10;1.00
1668;DHT22;832;47.956;7.864;2022-08-01T04:42:04;19.00;1.00
1668;DHT22;832;47.956;7.864;2022-08-01T04:44:31;19.00;1.00
1668;DHT22;832;47.956;7.864;2022-08-01T04:46:59;18.90;1.00
1668;DHT22;832;47.956;7.864;2022-08-01T04:49:30;19.00;1.00
1668;DHT22;832;47.956;7.864;2022-08-01T04:51:56;19.00;1.00
1668;DHT22;832;47.956;7.864;2022-08-01T04:54:33;19.00;1.00
1668;DHT22;832;47.956;7.864;2022-08-01T04:57:00;18.90;1.00
1668;DHT22;832;47.956;7.864;2022-08-01T04:59:26;18.90;1.00
1668;DHT22;832;47.956;7.864;2022-08-01T05:02:08;19.00;1.00
1668;DHT22;832;47.956;7.864;2022-08-01T05:04:34;19.00;1.00
1668;DHT22;832;47.956;7.864;2022-08-01T05:07:00;19.00;1.00
1668;DHT22;832;47.956;7.864;2022-08-01T05:09:25;19.00;1.00
1668;DHT22;832;47.956;7.864;2022-08-01T05:11:51;18.90;1.00
1668;DHT22;832;47.956;7.864;2022-08-01T05:14:17;19.00;1.00
1668;DHT22;832;47.956;7.864;2022-08-01T05:16:42;18.90;1.00
1668;DHT22;832;47.956;7.864;2022-08-01T05:19:08;19.00;1.00
1668;DHT22;832;47.956;7.864;2022-08-01T05:21:35;18.90;1.00
1668;DHT22;832;47.956;7.864;2022-08-01T05:24:00;18.90;1.00
1668;DHT22;832;47.956;7.864;2022-08-01T05:26:26;18.90;1.00
1668;DHT22;832;47.956;7.864;2022-08-01T05:28:52;19.00;1.00
1668;DHT22;832;47.956;7.864;2022-08-01T05:31:17;19.00;1.00
1668;DHT22;832;47.956;7.864;2022-08-01T05:33:43;19.10;1.00
1668;DHT22;832;47.956;7.864;2022-08-01T05:36:08;19.10;1.00
1668;DHT22;832;47.956;7.864;2022-08-01T05:38:34;19.00;1.00
1668;DHT22;832;47.956;7.864;2022-08-01T05:40:59;19.00;1.00
1668;DHT22;832;47.956;7.864;2022-08-01T05:43:25;19.00;1.00
1668;DHT22;832;47.956;7.864;2022-08-01T05:45:51;19.10;1.00
1668;DHT22;832;47.956;7.864;2022-08-01T05:48:17;19.00;1.00
1668;DHT22;832;47.956;7.864;2022-08-01T05:50:42;19.10;1.00
1668;DHT22;832;47.956;7.864;2022-08-01T05:53:08;19.20;1.00
1668;DHT22;832;47.956;7.864;2022-08-01T05:55:35;19.20;1.00
1668;DHT22;832;47.956;7.864;2022-08-01T05:58:00;19.20;1.00
1668;DHT22;832;47.956;7.864;2022-08-01T06:00:26;19.20;1.00
1668;DHT22;832;47.956;7.864;2022-08-01T06:02:52;19.30;1.00
1668;DHT22;832;47.956;7.864;2022-08-01T06:05:17;19.40;1.00
1668;DHT22;832;47.956;7.864;2022-08-01T06:07:43;19.50;1.00
1668;DHT22;832;47.956;7.864;2022-08-01T06:10:09;19.40;1.00
1668;DHT22;832;47.956;7.864;2022-08-01T06:12:35;19.40;1.00
1668;DHT22;832;47.956;7.864;2022-08-01T06:15:02;19.40;1.00
1668;DHT22;832;47.956;7.864;2022-08-01T06:17:28;19.40;1.00
1668;DHT22;832;47.956;7.864;2022-08-01T06:19:53;19.50;1.00
1668;DHT22;832;47.956;7.864;2022-08-01T06:22:19;19.50;1.00
1668;DHT22;832;47.956;7.864;2022-08-01T06:24:44;19.60;1.00
1668;DHT22;832;47.956;7.864;2022-08-01T06:27:10;19.60;1.00
1668;DHT22;832;47.956;7.864;2022-08-01T06:29:36;19.70;1.00
1668;DHT22;832;47.956;7.864;2022-08-01T06:32:01;19.70;1.00
1668;DHT22;832;47.956;7.864;2022-08-01T06:34:27;19.80;1.00
1668;DHT22;832;47.956;7.864;2022-08-01T06:36:52;19.90;1.00
1668;DHT22;832;47.956;7.864;2022-08-01T06:39:18;19.90;1.00
1668;DHT22;832;47.956;7.864;2022-08-01T06:41:43;20.00;1.00
1668;DHT22;832;47.956;7.864;2022-08-01T06:44:12;20.20;1.00
1668;DHT22;832;47.956;7.864;2022-08-01T06:46:37;20.30;1.00
1668;DHT22;832;47.956;7.864;2022-08-01T06:49:03;20.40;1.00
1668;DHT22;832;47.956;7.864;2022-08-01T06:51:29;20.50;1.00
1668;DHT22;832;47.956;7.864;2022-08-01T06:53:55;20.60;1.00
1668;DHT22;832;47.956;7.864;2022-08-01T06:56:20;20.70;1.00
1668;DHT22;832;47.956;7.864;2022-08-01T06:58:46;20.80;1.00
1668;DHT22;832;47.956;7.864;2022-08-01T07:01:12;20.90;1.00
1668;DHT22;832;47.956;7.864;2022-08-01T07:03:37;20.90;1.00
1668;DHT22;832;47.956;7.864;2022-08-01T07:06:03;21.00;1.00
1668;DHT22;832;47.956;7.864;2022-08-01T07:08:29;21.10;1.00
1668;DHT22;832;47.956;7.864;2022-08-01T07:10:55;21.20;1.00
1668;DHT22;832;47.956;7.864;2022-08-01T07:13:25;21.30;1.00
1668;DHT22;832;47.956;7.864;2022-08-01T07:15:51;21.40;1.00
1668;DHT22;832;47.956;7.864;2022-08-01T07:18:18;21.50;1.00
1668;DHT22;832;47.956;7.864;2022-08-01T07:20:43;21.60;1.00
1668;DHT22;832;47.956;7.864;2022-08-01T07:23:11;21.80;1.00
1668;DHT22;832;47.956;7.864;2022-08-01T07:25:37;21.90;1.00
1668;DHT22;832;47.956;7.864;2022-08-01T07:28:03;22.00;1.00
1668;DHT22;832;47.956;7.864;2022-08-01T07:30:28;22.10;1.00
1668;DHT22;832;47.956;7.864;2022-08-01T07:32:54;22.20;1.00
1668;DHT22;832;47.956;7.864;2022-08-01T07:35:20;22.20;1.00
1668;DHT22;832;47.956;7.864;2022-08-01T07:37:45;22.40;1.00
1668;DHT22;832;47.956;7.864;2022-08-01T07:40:11;22.50;1.00
1668;DHT22;832;47.956;7.864;2022-08-01T07:42:37;22.60;1.00
1668;DHT22;832;47.956;7.864;2022-08-01T07:45:03;22.70;1.00
1668;DHT22;832;47.956;7.864;2022-08-01T07:47:29;22.80;1.00
1668;DHT22;832;47.956;7.864;2022-08-01T07:50:00;22.90;1.00
1668;DHT22;832;47.956;7.864;2022-08-01T07:52:25;23.00;1.00
1668;DHT22;832;47.956;7.864;2022-08-01T07:54:52;23.10;1.00
1668;DHT22;832;47.956;7.864;2022-08-01T07:57:18;23.20;1.00
1668;DHT22;832;47.956;7.864;2022-08-01T07:59:43;23.30;1.00
1668;DHT22;832;47.956;7.864;2022-08-01T08:02:09;23.40;1.00
1668;DHT22;832;47.956;7.864;2022-08-01T08:04:35;23.60;1.00
1668;DHT22;832;47.956;7.864;2022-08-01T08:07:00;23.70;1.00
1668;DHT22;832;47.956;7.864;2022-08-01T08:09:26;23.70;1.00
1668;DHT22;832;47.956;7.864;2022-08-01T08:11:52;23.80;1.00
1668;DHT22;832;47.956;7.864;2022-08-01T08:14:18;23.90;1.00
1668;DHT22;832;47.956;7.864;2022-08-01T08:16:44;24.00;1.00
1668;DHT22;832;47.956;7.864;2022-08-01T08:19:10;24.20;1.00
1668;DHT22;832;47.956;7.864;2022-08-01T08:21:36;24.30;1.00
1668;DHT22;832;47.956;7.864;2022-08-01T08:24:03;24.30;1.00
1668;DHT22;832;47.956;7.864;2022-08-01T08:26:48;24.40;1.00
1668;DHT22;832;47.956;7.864;2022-08-01T08:29:14;24.50;1.00
1668;DHT22;832;47.956;7.864;2022-08-01T08:31:40;24.60;1.00
1668;DHT22;832;47.956;7.864;2022-08-01T08:34:06;24.70;1.00
1668;DHT22;832;47.956;7.864;2022-08-01T08:36:32;24.80;1.00
1668;DHT22;832;47.956;7.864;2022-08-01T08:39:01;24.90;1.00
1668;DHT22;832;47.956;7.864;2022-08-01T08:41:29;25.00;1.00
1668;DHT22;832;47.956;7.864;2022-08-01T08:43:55;25.10;1.00
1668;DHT22;832;47.956;7.864;2022-08-01T08:46:23;25.30;1.00
1668;DHT22;832;47.956;7.864;2022-08-01T08:48:51;25.30;1.00
1668;DHT22;832;47.956;7.864;2022-08-01T08:51:18;25.40;1.00
1668;DHT22;832;47.956;7.864;2022-08-01T08:53:45;25.50;1.00
1668;DHT22;832;47.956;7.864;2022-08-01T08:56:13;25.50;1.00
1668;DHT22;832;47.956;7.864;2022-08-01T08:58:43;25.60;1.00
1668;DHT22;832;47.956;7.864;2022-08-01T09:01:09;25.70;1.00
1668;DHT22;832;47.956;7.864;2022-08-01T09:03:35;25.80;1.00
1668;DHT22;832;47.956;7.864;2022-08-01T09:06:01;26.00;1.00
1668;DHT22;832;47.956;7.864;2022-08-01T09:08:28;26.10;1.00
1668;DHT22;832;47.956;7.864;2022-08-01T09:10:53;26.10;1.00
1668;DHT22;832;47.956;7.864;2022-08-01T09:13:19;26.30;1.00
1668;DHT22;832;47.956;7.864;2022-08-01T09:18:32;26.50;1.00
1668;DHT22;832;47.956;7.864;2022-08-01T09:21:14;26.60;1.00
1668;DHT22;832;47.956;7.864;2022-08-01T09:23:45;26.70;1.00
1668;DHT22;832;47.956;7.864;2022-08-01T09:26:13;26.80;1.00
1668;DHT22;832;47.956;7.864;2022-08-01T09:28:39;26.90;1.00
1668;DHT22;832;47.956;7.864;2022-08-01T09:31:09;27.00;1.00
1668;DHT22;832;47.956;7.864;2022-08-01T09:33:55;27.10;1.00
1668;DHT22;832;47.956;7.864;2022-08-01T09:36:23;27.30;1.00
1668;DHT22;832;47.956;7.864;2022-08-01T09:38:50;27.40;1.00
1668;DHT22;832;47.956;7.864;2022-08-01T09:41:17;27.40;1.00
1668;DHT22;832;47.956;7.864;2022-08-01T09:43:49;27.50;1.00
1668;DHT22;832;47.956;7.864;2022-08-01T09:46:16;27.70;1.00
1668;DHT22;832;47.956;7.864;2022-08-01T09:48:59;27.80;1.00
1668;DHT22;832;47.956;7.864;2022-08-01T09:51:30;27.90;1.00
1668;DHT22;832;47.956;7.864;2022-08-01T09:53:56;28.00;1.00
1668;DHT22;832;47.956;7.864;2022-08-01T09:56:23;28.10;1.00
1668;DHT22;832;47.956;7.864;2022-08-01T09:58:59;28.20;1.00
1668;DHT22;832;47.956;7.864;2022-08-01T10:01:25;28.10;1.00
1668;DHT22;832;47.956;7.864;2022-08-01T10:04:12;28.40;1.00
1668;DHT22;832;47.956;7.864;2022-08-01T10:06:40;28.60;1.00
1668;DHT22;832;47.956;7.864;2022-08-01T10:09:08;28.70;1.00
1668;DHT22;832;47.956;7.864;2022-08-01T10:11:34;28.70;1.00
1668;DHT22;832;47.956;7.864;2022-08-01T10:14:04;28.80;1.00
1668;DHT22;832;47.956;7.864;2022-08-01T10:16:31;28.90;1.00
1668;DHT22;832;47.956;7.864;2022-08-01T10:18:58;29.00;1.00
1668;DHT22;832;47.956;7.864;2022-08-01T10:21:26;29.10;1.00
1668;DHT22;832;47.956;7.864;2022-08-01T10:23:54;29.20;1.00
1668;DHT22;832;47.956;7.864;2022-08-01T10:26:21;29.40;1.00
1668;DHT22;832;47.956;7.864;2022-08-01T10:28:51;29.50;1.00
1668;DHT22;832;47.956;7.864;2022-08-01T10:31:18;29.50;1.00
1668;DHT22;832;47.956;7.864;2022-08-01T10:33:44;29.50;1.00
1668;DHT22;832;47.956;7.864;2022-08-01T10:36:10;29.60;1.00
1668;DHT22;832;47.956;7.864;2022-08-01T10:38:36;29.70;1.00
1668;DHT22;832;47.956;7.864;2022-08-01T10:41:03;29.70;1.00
1668;DHT22;832;47.956;7.864;2022-08-01T10:43:29;29.90;1.00
1668;DHT22;832;47.956;7.864;2022-08-01T10:45:55;29.80;1.00
1668;DHT22;832;47.956;7.864;2022-08-01T10:48:26;29.90;1.00
1668;DHT22;832;47.956;7.864;2022-08-01T10:50:58;30.00;1.00
1668;DHT22;832;47.956;7.864;2022-08-01T10:53:26;30.00;1.00
1668;DHT22;832;47.956;7.864;2022-08-01T10:58:34;30.30;1.00
1668;DHT22;832;47.956;7.864;2022-08-01T11:01:19;30.30;1.00
1668;DHT22;832;47.956;7.864;2022-08-01T11:03:57;30.40;1.00
1668;DHT22;832;47.956;7.864;2022-08-01T11:11:58;30.50;1.00
1668;DHT22;832;47.956;7.864;2022-08-01T11:14:24;30.50;1.00
1668;DHT22;832;47.956;7.864;2022-08-01T11:16:50;30.40;1.00
1668;DHT22;832;47.956;7.864;2022-08-01T11:19:15;30.50;1.00
1668;DHT22;832;47.956;7.864;2022-08-01T11:27:31;30.70;1.00
1668;DHT22;832;47.956;7.864;2022-08-01T11:32:52;30.90;1.00
1668;DHT22;832;47.956;7.864;2022-08-01T11:35:18;30.90;1.00
1668;DHT22;832;47.956;7.864;2022-08-01T11:37:46;31.00;1.00
1668;DHT22;832;47.956;7.864;2022-08-01T11:43:15;31.00;1.00
1668;DHT22;832;47.956;7.864;2022-08-01T11:45:53;31.10;1.00
1668;DHT22;832;47.956;7.864;2022-08-01T11:48:26;31.10;1.00
1668;DHT22;832;47.956;7.864;2022-08-01T11:50:55;31.20;1.00
1668;DHT22;832;47.956;7.864;2022-08-01T11:53:21;31.30;1.00
1668;DHT22;832;47.956;7.864;2022-08-01T11:55:49;31.30;1.00
1668;DHT22;832;47.956;7.864;2022-08-01T11:58:16;31.20;1.00
1668;DHT22;832;47.956;7.864;2022-08-01T12:00:51;30.90;1.00
1668;DHT22;832;47.956;7.864;2022-08-01T12:03:17;31.00;1.00
1668;DHT22;832;47.956;7.864;2022-08-01T12:05:48;31.20;1.00
1668;DHT22;832;47.956;7.864;2022-08-01T12:08:13;31.30;1.00
1668;DHT22;832;47.956;7.864;2022-08-01T12:10:49;31.30;1.00
1668;DHT22;832;47.956;7.864;2022-08-01T12:13:15;31.30;1.00
1668;DHT22;832;47.956;7.864;2022-08-01T12:15:40;31.40;1.00
1668;DHT22;832;47.956;7.864;2022-08-01T12:18:06;31.50;1.00
1668;DHT22;832;47.956;7.864;2022-08-01T12:20:33;31.50;1.00
1668;DHT22;832;47.956;7.864;2022-08-01T12:23:02;31.50;1.00
1668;DHT22;832;47.956;7.864;2022-08-01T12:25:31;31.70;1.00
1668;DHT22;832;47.956;7.864;2022-08-01T12:28:02;31.80;1.00
1668;DHT22;832;47.956;7.864;2022-08-01T12:30:29;31.90;1.00
1668;DHT22;832;47.956;7.864;2022-08-01T12:33:01;31.80;1.00
1668;DHT22;832;47.956;7.864;2022-08-01T12:35:28;31.90;1.00
1668;DHT22;832;47.956;7.864;2022-08-01T12:38:04;31.90;1.00
1668;DHT22;832;47.956;7.864;2022-08-01T12:40:33;32.10;1.00
1668;DHT22;832;47.956;7.864;2022-08-01T12:43:04;32.10;1.00
1668;DHT22;832;47.956;7.864;2022-08-01T12:45:43;32.00;1.00
1668;DHT22;832;47.956;7.864;2022-08-01T12:48:11;31.80;1.00
1668;DHT22;832;47.956;7.864;2022-08-01T12:50:40;31.70;1.00
1668;DHT22;832;47.956;7.864;2022-08-01T12:53:08;31.60;1.00
1668;DHT22;832;47.956;7.864;2022-08-01T12:55:44;31.70;1.00
1668;DHT22;832;47.956;7.864;2022-08-01T12:58:12;31.50;1.00
1668;DHT22;832;47.956;7.864;2022-08-01T13:00:40;31.40;1.00
1668;DHT22;832;47.956;7.864;2022-08-01T13:03:15;31.60;1.00
1668;DHT22;832;47.956;7.864;2022-08-01T13:08:21;31.90;1.00
1668;DHT22;832;47.956;7.864;2022-08-01T13:10:48;32.00;1.00
1668;DHT22;832;47.956;7.864;2022-08-01T13:13:15;31.70;1.00
1668;DHT22;832;47.956;7.864;2022-08-01T13:15:42;31.60;1.00
1668;DHT22;832;47.956;7.864;2022-08-01T13:18:29;31.50;1.00
1668;DHT22;832;47.956;7.864;2022-08-01T13:23:42;31.40;1.00
1668;DHT22;832;47.956;7.864;2022-08-01T13:26:44;31.60;1.00
1668;DHT22;832;47.956;7.864;2022-08-01T13:29:15;31.70;1.00
1668;DHT22;832;47.956;7.864;2022-08-01T13:31:41;31.80;1.00
1668;DHT22;832;47.956;7.864;2022-08-01T13:34:08;31.90;1.00
1668;DHT22;832;47.956;7.864;2022-08-01T13:36:35;32.00;1.00
1668;DHT22;832;47.956;7.864;2022-08-01T13:39:01;32.10;1.00
1668;DHT22;832;47.956;7.864;2022-08-01T13:41:46;32.10;1.00
1668;DHT22;832;47.956;7.864;2022-08-01T13:44:12;31.80;1.00
1668;DHT22;832;47.956;7.864;2022-08-01T13:46:39;31.60;1.00
1668;DHT22;832;47.956;7.864;2022-08-01T13:49:06;31.30;1.00
1668;DHT22;832;47.956;7.864;2022-08-01T13:51:33;31.20;1.00
1668;DHT22;832;47.956;7.864;2022-08-01T13:53:59;31.20;1.00
1668;DHT22;832;47.956;7.864;2022-08-01T13:56:25;30.90;1.00
1668;DHT22;832;47.956;7.864;2022-08-01T13:58:53;30.80;1.00
1668;DHT22;832;47.956;7.864;2022-08-01T14:01:18;30.60;1.00
1668;DHT22;832;47.956;7.864;2022-08-01T14:03:44;30.40;1.00
1668;DHT22;832;47.956;7.864;2022-08-01T14:06:10;30.30;1.00
1668;DHT22;832;47.956;7.864;2022-08-01T14:08:36;30.30;1.00
1668;DHT22;832;47.956;7.864;2022-08-01T14:11:01;30.30;1.00
1668;DHT22;832;47.956;7.864;2022-08-01T14:13:27;30.20;1.00
1668;DHT22;832;47.956;7.864;2022-08-01T14:15:53;30.10;1.00
1668;DHT22;832;47.956;7.864;2022-08-01T14:18:19;30.10;1.00
1668;DHT22;832;47.956;7.864;2022-08-01T14:20:44;30.00;1.00
1668;DHT22;832;47.956;7.864;2022-08-01T14:23:10;29.90;1.00
1668;DHT22;832;47.956;7.864;2022-08-01T14:25:37;29.80;1.00
1668;DHT22;832;47.956;7.864;2022-08-01T14:28:03;29.70;1.00
1668;DHT22;832;47.956;7.864;2022-08-01T14:30:29;29.60;1.00
1668;DHT22;832;47.956;7.864;2022-08-01T14:32:55;29.50;1.00
1668;DHT22;832;47.956;7.864;2022-08-01T14:35:21;29.30;1.00
1668;DHT22;832;47.956;7.864;2022-08-01T14:37:46;29.30;1.00
1668;DHT22;832;47.956;7.864;2022-08-01T14:40:12;29.20;1.00
1668;DHT22;832;47.956;7.864;2022-08-01T14:42:39;29.20;1.00
1668;DHT22;832;47.956;7.864;2022-08-01T14:45:06;29.10;1.00
1668;DHT22;832;47.956;7.864;2022-08-01T14:47:41;29.10;1.00
1668;DHT22;832;47.956;7.864;2022-08-01T14:50:10;28.80;1.00
1668;DHT22;832;47.956;7.864;2022-08-01T14:52:37;28.60;1.00
1668;DHT22;832;47.956;7.864;2022-08-01T14:55:05;28.30;1.00
1668;DHT22;832;47.956;7.864;2022-08-01T14:57:31;28.30;1.00
1668;DHT22;832;47.956;7.864;2022-08-01T14:59:56;28.20;1.00
1668;DHT22;832;47.956;7.864;2022-08-01T15:02:22;28.10;1.00
1668;DHT22;832;47.956;7.864;2022-08-01T15:04:48;28.10;1.00
1668;DHT22;832;47.956;7.864;2022-08-01T15:07:15;28.10;1.00
1668;DHT22;832;47.956;7.864;2022-08-01T15:09:42;28.10;1.00
1668;DHT22;832;47.956;7.864;2022-08-01T15:12:08;28.10;1.00
1668;DHT22;832;47.956;7.864;2022-08-01T15:14:34;28.20;1.00
1668;DHT22;832;47.956;7.864;2022-08-01T15:17:36;28.20;1.00
1668;DHT22;832;47.956;7.864;2022-08-01T15:20:04;28.00;1.00
1668;DHT22;832;47.956;7.864;2022-08-01T15:22:30;28.10;1.00
1668;DHT22;832;47.956;7.864;2022-08-01T15:24:58;28.00;1.00
1668;DHT22;832;47.956;7.864;2022-08-01T15:27:24;28.00;1.00
1668;DHT22;832;47.956;7.864;2022-08-01T15:29:50;27.90;1.00
1668;DHT22;832;47.956;7.864;2022-08-01T15:32:16;28.00;1.00
1668;DHT22;832;47.956;7.864;2022-08-01T15:34:41;28.00;1.00
1668;DHT22;832;47.956;7.864;2022-08-01T15:37:07;27.90;1.00
1668;DHT22;832;47.956;7.864;2022-08-01T15:39:35;27.90;1.00
1668;DHT22;832;47.956;7.864;2022-08-01T15:42:07;27.80;1.00
1668;DHT22;832;47.956;7.864;2022-08-01T15:44:34;27.90;1.00
1668;DHT22;832;47.956;7.864;2022-08-01T15:47:01;27.90;1.00
1668;DHT22;832;47.956;7.864;2022-08-01T15:49:27;27.80;1.00
1668;DHT22;832;47.956;7.864;2022-08-01T15:51:53;27.90;1.00
1668;DHT22;832;47.956;7.864;2022-08-01T15:54:18;27.80;1.00
1668;DHT22;832;47.956;7.864;2022-08-01T15:56:44;27.70;1.00
1668;DHT22;832;47.956;7.864;2022-08-01T15:59:10;27.90;1.00
1668;DHT22;832;47.956;7.864;2022-08-01T16:01:36;27.80;1.00
1668;DHT22;832;47.956;7.864;2022-08-01T16:04:04;27.70;1.00
1668;DHT22;832;47.956;7.864;2022-08-01T16:06:30;27.70;1.00
1668;DHT22;832;47.956;7.864;2022-08-01T16:08:56;27.60;1.00
1668;DHT22;832;47.956;7.864;2022-08-01T16:11:22;27.70;1.00
1668;DHT22;832;47.956;7.864;2022-08-01T16:13:52;27.70;1.00
1668;DHT22;832;47.956;7.864;2022-08-01T16:16:19;27.80;1.00
1668;DHT22;832;47.956;7.864;2022-08-01T16:18:44;27.80;1.00
1668;DHT22;832;47.956;7.864;2022-08-01T16:21:10;27.80;1.00
1668;DHT22;832;47.956;7.864;2022-08-01T16:23:40;27.70;1.00
1668;DHT22;832;47.956;7.864;2022-08-01T16:26:06;27.80;1.00
1668;DHT22;832;47.956;7.864;2022-08-01T16:28:32;27.80;1.00
1668;DHT22;832;47.956;7.864;2022-08-01T16:30:58;27.80;1.00
1668;DHT22;832;47.956;7.864;2022-08-01T16:33:24;27.80;1.00
1668;DHT22;832;47.956;7.864;2022-08-01T16:35:49;27.90;1.00
1668;DHT22;832;47.956;7.864;2022-08-01T16:38:15;27.80;1.00
1668;DHT22;832;47.956;7.864;2022-08-01T16:40:43;27.90;1.00
1668;DHT22;832;47.956;7.864;2022-08-01T16:43:09;27.80;1.00
1668;DHT22;832;47.956;7.864;2022-08-01T16:45:35;27.80;1.00
1668;DHT22;832;47.956;7.864;2022-08-01T16:48:01;27.80;1.00
1668;DHT22;832;47.956;7.864;2022-08-01T16:50:26;27.70;1.00
1668;DHT22;832;47.956;7.864;2022-08-01T16:52:52;27.70;1.00
1668;DHT22;832;47.956;7.864;2022-08-01T16:55:17;27.70;1.00
1668;DHT22;832;47.956;7.864;2022-08-01T16:57:43;27.70;1.00
1668;DHT22;832;47.956;7.864;2022-08-01T17:00:13;27.70;1.00
1668;DHT22;832;47.956;7.864;2022-08-01T17:02:40;27.60;1.00
1668;DHT22;832;47.956;7.864;2022-08-01T17:05:08;27.60;1.00
1668;DHT22;832;47.956;7.864;2022-08-01T17:07:34;27.60;1.00
1668;DHT22;832;47.956;7.864;2022-08-01T17:10:00;27.50;1.00
1668;DHT22;832;47.956;7.864;2022-08-01T17:12:27;27.50;1.00